createdAt,value
2023-07-03T00:02:16.491Z,96079.72
2023-07-03T00:05:13.508Z,96080.81
2023-07-03T00:08:16.563Z,96077.63
2023-07-03T00:11:13.529Z,96078.50
2023-07-03T00:14:10.630Z,96078.03
2023-07-03T00:17:11.788Z,96075.41
2023-07-03T00:20:14.876Z,96079.47
2023-07-03T00:23:11.731Z,96084.53
2023-07-03T00:26:08.593Z,96080.47
2023-07-03T00:29:06.120Z,96074.56
2023-07-03T00:32:03.239Z,96089.38
2023-07-03T00:35:00.160Z,96082.53
2023-07-03T00:37:57.045Z,96076.22
2023-07-03T00:40:53.915Z,96084.19
2023-07-03T00:43:50.781Z,96074.75
2023-07-03T00:46:51.869Z,96081.94
2023-07-03T00:49:49.907Z,96084.63
2023-07-03T00:52:51.031Z,96080.44
2023-07-03T00:55:48.041Z,96070.69
2023-07-03T00:58:45.047Z,96068.63
2023-07-03T01:02:12.312Z,96081.66
2023-07-03T01:05:30.527Z,96076.41
2023-07-03T01:08:27.999Z,96071.22
2023-07-03T01:11:25.787Z,96075.72
2023-07-03T01:14:25.015Z,96075.72
2023-07-03T01:17:24.459Z,96080.19
2023-07-03T01:20:24.424Z,96079.19
2023-07-03T01:23:42.149Z,96082.56
2023-07-03T01:26:42.013Z,96078.44
2023-07-03T01:29:41.219Z,96075.28
2023-07-03T01:32:39.276Z,96087.38
2023-07-03T01:35:36.737Z,96082.75
2023-07-03T01:38:35.136Z,96085.31
2023-07-03T01:41:32.584Z,96083.13
2023-07-03T01:44:29.434Z,96075.38
2023-07-03T01:47:26.303Z,96078.44
2023-07-03T01:50:27.938Z,96081.69
2023-07-03T01:53:32.252Z,96076.69
2023-07-03T01:56:38.245Z,96084.91
2023-07-03T01:59:37.079Z,96088.88
2023-07-03T02:02:35.581Z,96080.50
2023-07-03T02:05:37.555Z,96077.69
2023-07-03T02:08:34.612Z,96080.22
2023-07-03T02:11:31.721Z,96086.25
2023-07-03T02:14:28.559Z,96075.50
2023-07-03T02:17:25.675Z,96076.59
2023-07-03T02:20:22.681Z,96079.44
2023-07-03T02:23:19.587Z,96084.50
2023-07-03T02:26:16.693Z,96088.94
2023-07-03T02:29:13.620Z,96086.88
2023-07-03T02:32:13.015Z,96095.59
2023-07-03T02:35:11.569Z,96094.00
2023-07-03T02:38:09.936Z,96085.13
2023-07-03T02:41:06.783Z,96086.88
2023-07-03T02:44:03.981Z,96094.28
2023-07-03T02:47:00.908Z,96090.69
2023-07-03T02:49:57.813Z,96097.63
2023-07-03T02:52:54.716Z,96099.66
2023-07-03T02:55:54.460Z,96095.84
2023-07-03T02:58:51.335Z,96095.69
2023-07-03T03:01:48.216Z,96099.78
2023-07-03T03:04:47.087Z,96103.25
2023-07-03T03:07:43.966Z,96105.47
2023-07-03T03:10:40.809Z,96098.72
2023-07-03T03:13:37.680Z,96109.72
2023-07-03T03:16:35.071Z,96104.19
2023-07-03T03:19:31.999Z,96107.50
2023-07-03T03:22:28.847Z,96094.94
2023-07-03T03:25:26.299Z,96097.25
2023-07-03T03:28:23.165Z,96105.63
2023-07-03T03:31:20.444Z,96104.66
2023-07-03T03:34:17.400Z,96104.22
2023-07-03T03:37:14.249Z,96108.19
2023-07-03T03:40:11.642Z,96104.88
2023-07-03T03:43:08.467Z,96105.34
2023-07-03T03:46:05.460Z,96099.97
2023-07-03T03:49:02.545Z,96108.81
2023-07-03T03:51:59.464Z,96106.59
2023-07-03T03:54:56.347Z,96102.66
2023-07-03T03:57:53.865Z,96108.63
2023-07-03T04:00:53.336Z,96107.06
2023-07-03T04:03:50.224Z,96105.78
2023-07-03T04:06:47.101Z,96110.22
2023-07-03T04:09:43.942Z,96115.72
2023-07-03T04:12:40.792Z,96102.63
2023-07-03T04:15:52.865Z,96116.19
2023-07-03T04:18:49.983Z,96110.78
2023-07-03T04:21:46.929Z,96117.72
2023-07-03T04:24:43.758Z,96121.38
2023-07-03T04:27:40.670Z,96108.25
2023-07-03T04:30:37.548Z,96103.03
2023-07-03T04:33:34.777Z,96116.56
2023-07-03T04:36:31.677Z,96105.53
2023-07-03T04:39:30.173Z,96110.41
2023-07-03T04:42:27.011Z,96116.31
2023-07-03T04:45:25.994Z,96102.03
2023-07-03T04:48:22.872Z,96110.47
2023-07-03T04:51:20.623Z,96097.56
2023-07-03T04:54:17.467Z,96097.78
2023-07-03T04:57:14.311Z,96103.66
2023-07-03T05:00:16.401Z,96105.50
2023-07-03T05:03:13.448Z,96096.41
2023-07-03T05:06:11.906Z,96104.19
2023-07-03T05:09:09.319Z,96101.50
2023-07-03T05:12:06.870Z,96106.81
2023-07-03T05:15:08.341Z,96102.03
2023-07-03T05:18:05.364Z,96108.66
2023-07-03T05:21:02.577Z,96100.06
2023-07-03T05:23:59.443Z,96112.03
2023-07-03T05:26:56.413Z,96120.59
2023-07-03T05:29:53.371Z,96111.44
2023-07-03T05:32:51.498Z,96115.72
2023-07-03T05:35:50.977Z,96115.28
2023-07-03T05:38:48.168Z,96119.94
2023-07-03T05:41:45.016Z,96124.00
2023-07-03T05:44:42.451Z,96117.53
2023-07-03T05:47:39.481Z,96123.59
2023-07-03T05:50:36.384Z,96129.97
2023-07-03T05:53:33.233Z,96128.06
2023-07-03T05:56:30.129Z,96126.06
2023-07-03T05:59:27.730Z,96136.03
2023-07-03T06:02:24.623Z,96136.13
2023-07-03T06:05:22.344Z,96133.00
2023-07-03T06:08:19.304Z,96130.66
2023-07-03T06:11:16.154Z,96129.53
2023-07-03T06:14:18.645Z,96131.41
2023-07-03T06:17:15.690Z,96129.66
2023-07-03T06:20:13.042Z,96136.47
2023-07-03T06:23:09.999Z,96128.38
2023-07-03T06:26:06.841Z,96131.81
2023-07-03T06:29:04.030Z,96131.81
2023-07-03T06:32:01.113Z,96134.03
2023-07-03T06:34:58.355Z,96131.88
2023-07-03T06:37:57.276Z,96128.19
2023-07-03T06:41:00.646Z,96134.75
2023-07-03T06:43:58.206Z,96125.19
2023-07-03T06:46:55.210Z,96130.19
2023-07-03T06:49:52.113Z,96139.19
2023-07-03T06:52:49.099Z,96144.31
2023-07-03T06:55:46.005Z,96154.03
2023-07-03T06:58:42.925Z,96145.88
2023-07-03T07:01:41.327Z,96141.25
2023-07-03T07:04:38.360Z,96142.91
2023-07-03T07:07:35.253Z,96141.69
2023-07-03T07:10:32.108Z,96148.19
2023-07-03T07:13:29.026Z,96151.59
2023-07-03T07:16:32.926Z,96147.06
2023-07-03T07:19:30.006Z,96141.75
2023-07-03T07:22:26.971Z,96141.72
2023-07-03T07:25:23.905Z,96145.84
2023-07-03T07:28:20.883Z,96139.03
2023-07-03T07:31:27.275Z,96142.47
2023-07-03T07:34:25.318Z,96138.88
2023-07-03T07:37:22.168Z,96132.94
2023-07-03T07:40:19.070Z,96153.72
2023-07-03T07:43:15.921Z,96136.91
2023-07-03T07:46:12.807Z,96144.22
2023-07-03T07:49:10.467Z,96133.75
2023-07-03T07:52:08.058Z,96137.84
2023-07-03T07:55:05.725Z,96140.91
2023-07-03T07:58:02.553Z,96129.59
2023-07-03T08:00:59.462Z,96130.25
2023-07-03T08:03:56.556Z,96135.69
2023-07-03T08:06:53.801Z,96139.97
2023-07-03T08:09:50.768Z,96137.41
2023-07-03T08:12:47.685Z,96152.53
2023-07-03T08:15:46.767Z,96150.53
2023-07-03T08:18:45.669Z,96151.03
2023-07-03T08:21:44.593Z,96148.47
2023-07-03T08:24:41.445Z,96152.06
2023-07-03T08:27:38.433Z,96154.63
2023-07-03T08:30:35.462Z,96147.66
2023-07-03T08:33:32.420Z,96146.94
2023-07-03T08:39:29.647Z,96142.59
2023-07-03T08:42:41.085Z,96138.75
2023-07-03T08:45:47.573Z,96129.41
2023-07-03T08:48:46.202Z,96152.88
2023-07-03T08:51:43.995Z,96157.94
2023-07-03T08:54:43.185Z,96147.91
2023-07-03T08:57:40.545Z,96145.09
2023-07-03T09:00:56.544Z,96137.63
2023-07-03T09:04:30.598Z,96145.00
2023-07-03T09:07:57.415Z,96145.44
2023-07-03T09:10:54.846Z,96139.22
2023-07-03T09:13:55.954Z,96142.94
2023-07-03T09:16:53.191Z,96143.38
2023-07-03T09:19:53.866Z,96144.16
2023-07-03T09:23:08.252Z,96139.38
2023-07-03T09:26:17.236Z,96133.47
2023-07-03T09:29:14.140Z,96145.56
2023-07-03T09:32:25.847Z,96148.34
2023-07-03T09:35:23.836Z,96149.63
2023-07-03T09:38:25.845Z,96157.38
2023-07-03T09:41:31.725Z,96151.25
2023-07-03T09:44:28.623Z,96144.25
2023-07-03T09:47:32.610Z,96158.38
2023-07-03T09:50:35.763Z,96161.44
2023-07-03T09:53:40.632Z,96150.09
2023-07-03T09:56:38.899Z,96153.16
2023-07-03T09:59:37.419Z,96148.88
2023-07-03T10:08:40.589Z,96144.72
2023-07-03T10:12:01.362Z,96159.41
2023-07-03T10:14:59.456Z,96155.78
2023-07-03T10:18:21.670Z,96144.81
2023-07-03T10:21:21.702Z,96140.19
2023-07-03T10:24:19.517Z,96150.31
2023-07-03T10:27:21.152Z,96143.78
2023-07-03T10:30:19.867Z,96146.34
2023-07-03T10:33:25.370Z,96155.28
2023-07-03T10:36:27.232Z,96151.00
2023-07-03T10:39:45.609Z,96159.00
2023-07-03T10:43:00.225Z,96161.38
2023-07-03T10:45:59.995Z,96155.38
2023-07-03T10:49:04.618Z,96161.16
2023-07-03T10:52:25.140Z,96163.41
2023-07-03T10:55:38.089Z,96165.50
2023-07-03T10:59:07.569Z,96169.72
2023-07-03T11:02:39.668Z,96163.00
2023-07-03T11:06:10.094Z,96159.06
2023-07-03T11:09:17.926Z,96173.84
2023-07-03T11:12:27.712Z,96170.78
2023-07-03T11:16:04.276Z,96173.69
2023-07-03T11:23:10.433Z,96181.09
2023-07-03T11:29:28.762Z,96173.34
2023-07-03T11:32:26.885Z,96179.97
2023-07-03T11:44:57.187Z,96187.03
2023-07-03T11:47:54.390Z,96187.03
2023-07-03T11:50:59.240Z,96188.09
2023-07-03T11:54:00.314Z,96180.19
2023-07-03T11:57:36.970Z,96178.06
2023-07-03T12:00:35.678Z,96187.13
2023-07-03T12:04:01.163Z,96201.50
2023-07-03T12:06:58.115Z,96179.69
2023-07-03T12:10:14.927Z,96182.59
2023-07-03T12:13:43.040Z,96189.91
2023-07-03T12:16:46.387Z,96185.59
2023-07-03T12:19:43.267Z,96174.59
2023-07-03T12:22:49.419Z,96166.44
2023-07-03T12:25:46.269Z,96168.63
2023-07-03T12:28:44.018Z,96168.63
2023-07-03T12:31:53.431Z,96173.28
2023-07-03T12:34:50.356Z,96182.78
2023-07-03T12:37:54.099Z,96174.66
2023-07-03T12:40:51.025Z,96166.31
2023-07-03T12:43:59.968Z,96164.53
2023-07-03T12:47:10.864Z,96177.44
2023-07-03T12:50:08.616Z,96168.63
2023-07-03T12:53:05.587Z,96158.19
2023-07-03T12:56:08.410Z,96163.63
2023-07-03T12:59:08.315Z,96188.31
2023-07-03T13:02:05.261Z,96164.38
2023-07-03T13:05:06.865Z,96168.09
2023-07-03T13:08:11.528Z,96177.44
2023-07-03T13:11:08.861Z,96180.19
2023-07-03T13:14:17.864Z,96165.81
2023-07-03T13:17:28.156Z,96161.22
2023-07-03T13:20:29.096Z,96158.31
2023-07-03T13:23:33.364Z,96172.06
2023-07-03T13:26:30.266Z,96179.50
2023-07-03T13:29:34.252Z,96174.78
2023-07-03T13:32:31.094Z,96170.84
2023-07-03T13:35:36.468Z,96167.56
2023-07-03T13:38:33.430Z,96165.72
2023-07-03T13:41:30.458Z,96165.97
2023-07-03T13:44:27.721Z,96163.59
2023-07-03T13:47:26.629Z,96174.41
2023-07-03T13:50:25.583Z,96164.31
2023-07-03T13:53:26.506Z,96166.91
2023-07-03T13:56:23.494Z,96161.03
2023-07-03T13:59:20.355Z,96156.97
2023-07-03T14:02:17.314Z,96148.59
2023-07-03T14:05:14.614Z,96163.28
2023-07-03T14:08:11.520Z,96154.09
2023-07-03T14:11:12.886Z,96150.25
2023-07-03T14:14:11.013Z,96155.41
2023-07-03T14:17:07.979Z,96154.88
2023-07-03T14:20:06.635Z,96145.16
2023-07-03T14:23:05.345Z,96128.81
2023-07-03T14:26:04.506Z,96147.75
2023-07-03T14:29:01.360Z,96151.09
2023-07-03T14:31:58.433Z,96146.09
2023-07-03T14:34:55.335Z,96149.59
2023-07-03T14:37:52.294Z,96135.53
2023-07-03T14:40:49.182Z,96134.00
2023-07-03T14:43:46.039Z,96143.19
2023-07-03T14:46:42.964Z,96150.81
2023-07-03T14:49:41.204Z,96141.63
2023-07-03T14:52:43.979Z,96150.81
2023-07-03T14:55:40.836Z,96140.06
2023-07-03T14:58:37.671Z,96138.06
2023-07-03T15:01:35.917Z,96137.75
2023-07-03T15:04:33.087Z,96149.13
2023-07-03T15:07:30.089Z,96146.72
2023-07-03T15:10:27.202Z,96147.66
2023-07-03T15:13:24.114Z,96141.47
2023-07-03T15:16:27.702Z,96132.84
2023-07-03T15:19:24.586Z,96138.91
2023-07-03T15:22:22.025Z,96131.94
2023-07-03T15:25:19.588Z,96132.88
2023-07-03T15:28:16.637Z,96127.59
2023-07-03T15:31:13.976Z,96130.66
2023-07-03T15:34:10.862Z,96126.25
2023-07-03T15:37:08.482Z,96117.72
2023-07-03T15:40:06.626Z,96121.16
2023-07-03T15:43:03.522Z,96130.03
2023-07-03T15:46:09.479Z,96130.28
2023-07-03T15:49:08.448Z,96133.06
2023-07-03T15:52:06.566Z,96131.16
2023-07-03T15:55:05.414Z,96131.81
2023-07-03T15:58:02.369Z,96131.56
2023-07-03T16:01:05.056Z,96122.81
2023-07-03T16:04:02.994Z,96126.81
2023-07-03T16:07:00.230Z,96127.66
2023-07-03T16:09:57.042Z,96130.97
2023-07-03T16:12:53.870Z,96127.56
2023-07-03T16:15:50.915Z,96127.81
2023-07-03T16:18:54.116Z,96131.94
2023-07-03T16:21:51.040Z,96123.88
2023-07-03T16:24:50.741Z,96124.09
2023-07-03T16:27:47.737Z,96124.56
2023-07-03T16:31:01.209Z,96119.53
2023-07-03T16:34:00.986Z,96122.13
2023-07-03T16:36:57.864Z,96120.72
2023-07-03T16:39:54.698Z,96130.09
2023-07-03T16:42:52.511Z,96131.41
2023-07-03T16:45:49.724Z,96129.53
2023-07-03T16:48:48.689Z,96125.03
2023-07-03T16:51:45.515Z,96126.03
2023-07-03T16:54:42.391Z,96127.50
2023-07-03T16:57:39.261Z,96125.31
2023-07-03T17:00:42.255Z,96118.38
2023-07-03T17:03:39.826Z,96120.75
2023-07-03T17:06:36.783Z,96118.34
2023-07-03T17:09:33.663Z,96116.13
2023-07-03T17:12:30.559Z,96109.91
2023-07-03T17:15:27.421Z,96106.50
2023-07-03T17:18:25.466Z,96102.44
2023-07-03T17:21:22.340Z,96097.06
2023-07-03T17:24:19.237Z,96104.84
2023-07-03T17:27:16.124Z,96099.00
2023-07-03T17:30:13.207Z,96106.59
2023-07-03T17:33:11.294Z,96103.06
2023-07-03T17:36:08.562Z,96108.16
2023-07-03T17:39:05.439Z,96109.91
2023-07-03T17:42:02.281Z,96111.59
2023-07-03T17:44:59.131Z,96112.31
2023-07-03T17:47:56.035Z,96100.13
2023-07-03T17:50:53.655Z,96107.47
2023-07-03T17:53:50.628Z,96107.72
2023-07-03T17:56:48.003Z,96113.06
2023-07-03T17:59:44.895Z,96104.09
2023-07-03T18:02:41.909Z,96100.25
2023-07-03T18:05:39.062Z,96108.88
2023-07-03T18:08:36.590Z,96116.94
2023-07-03T18:11:33.448Z,96112.78
2023-07-03T18:14:30.322Z,96110.41
2023-07-03T18:17:27.460Z,96103.44
2023-07-03T18:20:24.361Z,96114.66
2023-07-03T18:23:21.209Z,96108.69
2023-07-03T18:26:18.074Z,96113.03
2023-07-03T18:29:15.140Z,96112.25
2023-07-03T18:32:12.969Z,96105.16
2023-07-03T18:35:09.931Z,96108.66
2023-07-03T18:38:06.840Z,96113.59
2023-07-03T18:41:06.703Z,96105.47
2023-07-03T18:44:03.571Z,96111.97
2023-07-03T18:47:00.435Z,96120.09
2023-07-03T18:49:58.426Z,96127.41
2023-07-03T18:52:55.307Z,96126.22
2023-07-03T18:55:52.456Z,96129.47
2023-07-03T18:58:49.762Z,96135.00
2023-07-03T19:01:46.627Z,96137.09
2023-07-03T19:04:45.882Z,96141.09
2023-07-03T19:07:44.795Z,96136.78
2023-07-03T19:10:42.288Z,96135.59
2023-07-03T19:13:39.410Z,96149.63
2023-07-03T19:16:36.613Z,96152.63
2023-07-03T19:19:33.560Z,96155.50
2023-07-03T19:22:30.511Z,96150.53
2023-07-03T19:25:27.348Z,96152.75
2023-07-03T19:28:26.031Z,96157.69
2023-07-03T19:31:22.945Z,96150.84
2023-07-03T19:34:20.105Z,96154.16
2023-07-03T19:37:16.945Z,96163.16
2023-07-03T19:40:13.802Z,96164.47
2023-07-03T19:43:11.443Z,96165.84
2023-07-03T19:46:10.603Z,96184.31
2023-07-03T19:49:07.496Z,96183.97
2023-07-03T19:52:05.068Z,96188.22
2023-07-03T19:55:01.906Z,96186.59
2023-07-03T19:57:58.790Z,96197.16
2023-07-03T20:01:00.761Z,96208.09
2023-07-03T20:03:57.729Z,96195.22
2023-07-03T20:06:54.655Z,96201.59
2023-07-03T20:09:51.495Z,96198.91
2023-07-03T20:12:51.881Z,96202.75
2023-07-03T20:15:48.853Z,96198.00
2023-07-03T20:18:53.683Z,96199.75
2023-07-03T20:21:51.402Z,96205.47
2023-07-03T20:24:48.447Z,96202.91
2023-07-03T20:27:45.738Z,96201.56
2023-07-03T20:30:48.512Z,96198.34
2023-07-03T20:33:46.824Z,96209.78
2023-07-03T20:36:43.670Z,96203.16
2023-07-03T20:39:40.514Z,96201.72
2023-07-03T20:42:37.365Z,96192.72
2023-07-03T20:45:35.040Z,96197.00
2023-07-03T20:48:33.080Z,96199.28
2023-07-03T20:51:33.660Z,96194.97
2023-07-03T20:54:44.452Z,96193.00
2023-07-03T20:57:41.420Z,96197.31
2023-07-03T21:00:38.326Z,96190.06
2023-07-03T21:03:35.320Z,96197.00
2023-07-03T21:06:35.421Z,96186.94
2023-07-03T21:09:32.313Z,96189.94
2023-07-03T21:12:29.262Z,96191.84
2023-07-03T21:15:26.170Z,96185.81
2023-07-03T21:18:23.117Z,96192.41
2023-07-03T21:21:23.474Z,96179.72
2023-07-03T21:24:20.319Z,96183.09
2023-07-03T21:27:18.589Z,96187.34
2023-07-03T21:30:15.582Z,96189.25
2023-07-03T21:33:12.461Z,96187.88
2023-07-03T21:36:22.406Z,96206.25
2023-07-03T21:39:19.236Z,96195.56
2023-07-03T21:42:16.102Z,96196.59
2023-07-03T21:45:13.006Z,96203.72
2023-07-03T21:48:09.861Z,96209.94
2023-07-03T21:51:08.834Z,96206.94
2023-07-03T21:54:05.692Z,96210.47
2023-07-03T21:57:02.541Z,96205.78
2023-07-03T21:59:59.389Z,96206.25
2023-07-03T22:02:56.520Z,96207.25
2023-07-03T22:05:55.237Z,96208.63
2023-07-03T22:08:52.502Z,96217.41
2023-07-03T22:11:49.361Z,96217.41
2023-07-03T22:14:46.213Z,96223.84
2023-07-03T22:17:43.078Z,96219.41
2023-07-03T22:20:40.901Z,96216.84
2023-07-03T22:23:39.437Z,96215.22
2023-07-03T22:26:36.298Z,96216.78
2023-07-03T22:29:33.387Z,96214.66
2023-07-03T22:32:30.727Z,96215.94
2023-07-03T22:35:27.734Z,96212.41
2023-07-03T22:38:24.648Z,96214.66
2023-07-03T22:41:23.409Z,96212.81
2023-07-03T22:44:20.366Z,96211.81
2023-07-03T22:47:17.197Z,96208.31
2023-07-03T22:50:14.129Z,96214.25
2023-07-03T22:53:11.533Z,96208.53
2023-07-03T22:56:08.527Z,96220.41
2023-07-03T22:59:05.407Z,96208.53
2023-07-03T23:02:02.294Z,96212.47
2023-07-03T23:04:59.171Z,96219.34
2023-07-03T23:07:56.805Z,96233.91
2023-07-03T23:10:56.084Z,96219.94
2023-07-03T23:13:53.250Z,96224.19
2023-07-03T23:16:54.756Z,96224.88
2023-07-03T23:19:51.916Z,96221.38
2023-07-03T23:22:48.759Z,96223.50
2023-07-03T23:25:56.983Z,96220.06
2023-07-03T23:28:53.828Z,96211.72
2023-07-03T23:31:51.920Z,96236.22
2023-07-03T23:34:48.805Z,96216.09
2023-07-03T23:37:45.652Z,96213.09
2023-07-03T23:40:45.820Z,96215.66
2023-07-03T23:43:43.687Z,96225.59
2023-07-03T23:46:40.794Z,96224.69
2023-07-03T23:49:38.431Z,96222.22
2023-07-03T23:52:35.272Z,96228.91
2023-07-03T23:55:32.617Z,96226.50
2023-07-03T23:58:29.524Z,96223.63
